Time;durP1;ratioP1;P1;durP2;ratioP2;P2;SDS_P1;SDS_P2;PMS_P1;PMS_P2;Temp;Humidity;BMP_temperature;BMP_pressure;BME280_temperature;BME280_humidity;BME280_pressure;Samples;Min_cycle;Max_cycle;Signal;HPM_P1;HPM_P2
2022/06/29 00:00:49;;;;;;;;;;;;;;;22.02;63.40;99760.53;3145505;28;19927;-65
2022/06/29 00:02:20;;;;;;;;;;;;;;;22.00;63.69;99762.50;3145240;28;20004;-65
2022/06/29 00:03:53;;;;;;;;;;;;;;;21.98;63.70;99751.22;3145294;28;20235;-65
2022/06/29 00:05:25;;;;;;;;;;;;;;;21.99;63.62;99758.19;3145342;28;19921;-65
2022/06/29 00:06:57;;;;;;;;;;;;;;;21.99;63.82;99760.00;3145878;28;20005;-65
2022/06/29 00:08:29;;;;;;;;;;;;;;;21.99;63.29;99760.81;3144775;28;20057;-65
2022/06/29 00:10:00;;;;;;;;;;;;;;;22.02;63.30;99754.41;3145032;28;19974;-65
2022/06/29 00:11:32;;;;;;;;;;;;;;;22.04;63.46;99757.75;3145653;28;20392;-65
2022/06/29 00:13:03;;;;;;;;;;;;;;;21.99;63.86;99755.53;3140454;28;19927;-65
2022/06/29 00:14:41;;;;;;;;;;;;;;;21.97;63.66;99751.34;3150215;28;19924;-65
2022/06/29 00:16:13;;;;;;;;;;;;;;;21.92;64.24;99750.94;3145136;28;19924;-65
2022/06/29 00:17:44;;;;;;;;;;;;;;;21.90;64.04;99755.56;3145204;28;19928;-65
2022/06/29 00:19:17;;;;;;;;;;;;;;;21.87;64.73;99753.19;3145076;28;19920;-65
2022/06/29 00:20:49;;;;;;;;;;;;;;;21.85;64.42;99755.13;3145154;28;19924;-66
2022/06/29 00:22:20;;;;;;;;;;;;;;;21.81;64.75;99746.63;3145242;28;19931;-65
2022/06/29 00:23:51;;;;;;;;;;;;;;;21.79;64.74;99751.25;3140157;28;19932;-65
2022/06/29 00:25:23;;;;;;;;;;;;;;;21.79;64.54;99751.25;3145083;28;19927;-65
2022/06/29 00:26:55;;;;;;;;;;;;;;;21.79;64.64;99753.88;3145246;28;19943;-65
2022/06/29 00:28:26;;;;;;;;;;;;;;;21.76;65.05;99754.19;3145240;28;20086;-65
2022/06/29 00:29:57;;;;;;;;;;;;;;;21.74;65.39;99753.47;3144564;28;19977;-65
2022/06/29 00:31:28;;;;;;;;;;;;;;;21.66;65.97;99748.91;3145228;28;20307;-65
2022/06/29 00:33:00;;;;;;;;;;;;;;;21.58;66.15;99746.13;3144325;28;19925;-65
2022/06/29 00:34:32;;;;;;;;;;;;;;;21.53;66.36;99741.25;3145074;28;19982;-65
2022/06/29 00:36:04;;;;;;;;;;;;;;;21.45;66.99;99743.75;3145222;28;19959;-65
2022/06/29 00:37:35;;;;;;;;;;;;;;;21.38;67.35;99739.97;3145225;28;20472;-65
2022/06/29 00:39:07;;;;;;;;;;;;;;;21.31;67.78;99738.84;3143974;28;20625;-65
2022/06/29 00:40:38;;;;;;;;;;;;;;;21.26;68.18;99738.41;3145947;28;19920;-65
2022/06/29 00:42:10;;;;;;;;;;;;;;;21.20;68.60;99738.97;3147689;28;19924;-65
2022/06/29 00:43:42;;;;;;;;;;;;;;;21.19;68.15;99734.66;3149831;28;20407;-65
2022/06/29 00:45:13;;;;;;;;;;;;;;;21.17;68.77;99739.25;3147491;28;19920;-65
2022/06/29 00:46:47;;;;;;;;;;;;;;;21.11;68.84;99743.28;3147744;28;19946;-65
2022/06/29 00:48:18;;;;;;;;;;;;;;;21.07;69.10;99739.25;3147401;28;19920;-65
2022/06/29 00:49:52;;;;;;;;;;;;;;;21.04;69.40;99745.66;3147662;28;19972;-65
2022/06/29 00:51:23;;;;;;;;;;;;;;;21.00;69.59;99744.28;3147300;28;20409;-65
2022/06/29 00:53:01;;;;;;;;;;;;;;;20.99;69.65;99749.69;3148074;28;19924;-65
2022/06/29 00:54:35;;;;;;;;;;;;;;;20.95;69.79;99735.91;3146336;28;20443;-65
2022/06/29 00:56:08;;;;;;;;;;;;;;;20.92;69.74;99738.81;3147372;28;19997;-65
2022/06/29 00:57:42;;;;;;;;;;;;;;;20.94;69.74;99738.66;3147171;28;19924;-65
2022/06/29 00:59:15;;;;;;;;;;;;;;;20.88;69.85;99734.75;3152138;28;20316;-65
2022/06/29 01:00:47;;;;;;;;;;;;;;;20.88;69.95;99737.41;3147587;28;20407;-65
2022/06/29 01:02:19;;;;;;;;;;;;;;;20.86;69.57;99734.09;3147276;28;20395;-65
2022/06/29 01:03:50;;;;;;;;;;;;;;;20.89;69.63;99725.88;3147154;28;19956;-65
2022/06/29 01:05:23;;;;;;;;;;;;;;;20.88;69.52;99729.47;3147270;28;20342;-65
2022/06/29 01:06:55;;;;;;;;;;;;;;;20.90;69.26;99719.59;3143747;28;19924;-65
2022/06/29 01:08:26;;;;;;;;;;;;;;;20.90;69.25;99730.19;3147113;28;20396;-65
2022/06/29 01:09:58;;;;;;;;;;;;;;;20.89;69.09;99725.88;3147709;28;19920;-65
2022/06/29 01:11:29;;;;;;;;;;;;;;;20.88;69.03;99726.81;3146988;28;19931;-65
2022/06/29 01:13:01;;;;;;;;;;;;;;;20.89;68.87;99731.16;3147368;28;19924;-65
2022/06/29 01:14:31;;;;;;;;;;;;;;;20.88;68.59;99725.03;3151422;28;20026;-66
2022/06/29 01:16:03;;;;;;;;;;;;;;;20.90;68.48;99723.06;3148670;28;19930;-65
2022/06/29 01:17:34;;;;;;;;;;;;;;;20.90;68.40;99732.81;3145672;28;19924;-65
2022/06/29 01:19:06;;;;;;;;;;;;;;;20.91;68.15;99729.19;3144020;28;19920;-65
2022/06/29 01:20:39;;;;;;;;;;;;;;;20.90;67.97;99722.22;3147056;28;19957;-65
2022/06/29 01:22:12;;;;;;;;;;;;;;;20.90;67.67;99724.88;3142227;28;20243;-65
2022/06/29 01:23:44;;;;;;;;;;;;;;;20.89;67.57;99724.03;3147048;28;20316;-65
2022/06/29 01:25:15;;;;;;;;;;;;;;;20.89;67.48;99721.41;3146602;28;19943;-65
2022/06/29 01:26:47;;;;;;;;;;;;;;;20.92;67.25;99722.13;3147187;28;19920;-65
2022/06/29 01:28:19;;;;;;;;;;;;;;;20.93;67.04;99723.78;3150375;28;20448;-65
2022/06/29 01:29:50;;;;;;;;;;;;;;;20.93;67.06;99729.06;3149252;28;19928;-65
2022/06/29 01:31:22;;;;;;;;;;;;;;;20.94;66.94;99728.09;3146886;28;19974;-66
2022/06/29 01:32:53;;;;;;;;;;;;;;;20.93;67.07;99732.53;3147174;28;19928;-65
2022/06/29 01:34:25;;;;;;;;;;;;;;;20.94;67.00;99717.50;3146930;28;19924;-65
2022/06/29 01:35:56;;;;;;;;;;;;;;;20.93;66.76;99719.31;3147268;28;19927;-65
2022/06/29 01:37:29;;;;;;;;;;;;;;;20.89;66.95;99717.91;3146979;28;19924;-65
2022/06/29 01:39:00;;;;;;;;;;;;;;;20.92;67.05;99722.94;3146885;28;20243;-65
2022/06/29 01:40:31;;;;;;;;;;;;;;;20.87;67.17;99710.09;3146702;28;20050;-65
2022/06/29 01:42:02;;;;;;;;;;;;;;;20.88;66.98;99708.28;3146537;28;19974;-65
2022/06/29 01:43:34;;;;;;;;;;;;;;;20.87;66.80;99707.47;3148585;28;19927;-65
2022/06/29 01:45:07;;;;;;;;;;;;;;;20.84;66.56;99691.03;3147028;28;19920;-65
2022/06/29 01:46:37;;;;;;;;;;;;;;;20.87;66.69;99706.63;3146913;28;19943;-65
2022/06/29 01:48:09;;;;;;;;;;;;;;;20.87;66.92;99707.47;3146879;28;20333;-65
2022/06/29 01:49:41;;;;;;;;;;;;;;;20.86;66.90;99707.59;3145511;28;19924;-65
2022/06/29 01:51:12;;;;;;;;;;;;;;;20.88;66.70;99708.28;3146704;28;19928;-65
2022/06/29 01:52:45;;;;;;;;;;;;;;;20.87;66.64;99711.91;3146778;28;19976;-65
2022/06/29 01:54:17;;;;;;;;;;;;;;;20.89;66.43;99708.16;3146454;28;20227;-65
2022/06/29 01:55:48;;;;;;;;;;;;;;;20.95;66.27;99713.88;3147063;28;20282;-65
2022/06/29 01:57:20;;;;;;;;;;;;;;;20.97;66.05;99712.78;3146743;28;20332;-65
2022/06/29 01:58:52;;;;;;;;;;;;;;;20.99;65.91;99710.81;3149632;28;19981;-65
2022/06/29 02:00:23;;;;;;;;;;;;;;;20.99;66.06;99720.56;3147644;28;19920;-65
2022/06/29 02:01:55;;;;;;;;;;;;;;;20.94;66.39;99723.66;3146785;28;19931;-65
2022/06/29 02:03:25;;;;;;;;;;;;;;;20.89;66.31;99717.91;3146551;28;20298;-65
2022/06/29 02:04:57;;;;;;;;;;;;;;;20.88;66.59;99711.81;3146690;28;20069;-65
2022/06/29 02:06:29;;;;;;;;;;;;;;;20.88;66.57;99717.09;3146464;28;19928;-65
2022/06/29 02:08:02;;;;;;;;;;;;;;;20.91;66.32;99718.59;3146509;28;19997;-65
2022/06/29 02:09:33;;;;;;;;;;;;;;;20.92;66.09;99707.06;3140890;28;19921;-65
2022/06/29 02:11:05;;;;;;;;;;;;;;;20.93;66.08;99711.38;3146822;28;19921;-65
2022/06/29 02:12:36;;;;;;;;;;;;;;;20.94;66.15;99712.19;3146739;28;19920;-64
2022/06/29 02:14:08;;;;;;;;;;;;;;;20.91;66.40;99708.00;3147720;28;19928;-66
2022/06/29 02:15:39;;;;;;;;;;;;;;;20.87;66.66;99709.28;3149919;28;19920;-65
2022/06/29 02:17:11;;;;;;;;;;;;;;;20.83;66.85;99715.81;3146874;28;19974;-65
2022/06/29 02:18:43;;;;;;;;;;;;;;;20.81;67.03;99707.19;3142477;28;19995;-66
2022/06/29 02:20:14;;;;;;;;;;;;;;;20.78;66.89;99715.38;3144523;28;19921;-65
2022/06/29 02:21:45;;;;;;;;;;;;;;;20.80;66.77;99710.81;3146330;28;19924;-65
2022/06/29 02:23:18;;;;;;;;;;;;;;;20.79;66.67;99704.66;3146439;28;20077;-65
2022/06/29 02:24:50;;;;;;;;;;;;;;;20.75;67.04;99710.38;3146348;28;20325;-65
2022/06/29 02:26:21;;;;;;;;;;;;;;;20.71;66.95;99701.03;3145986;28;20010;-66
2022/06/29 02:27:53;;;;;;;;;;;;;;;20.71;66.82;99701.03;3144377;28;20439;-65
2022/06/29 02:29:24;;;;;;;;;;;;;;;20.71;66.87;99701.88;3151551;28;20035;-66
2022/06/29 02:34:47;;;;;;;;;;;;;;;20.61;67.35;99701.00;3146321;28;19920;-65
2022/06/29 02:36:18;;;;;;;;;;;;;;;20.55;67.32;99694.44;3146081;28;20027;-65
2022/06/29 02:37:50;;;;;;;;;;;;;;;20.56;67.11;99696.13;3146000;28;20454;-65
2022/06/29 02:39:23;;;;;;;;;;;;;;;20.58;67.14;99696.00;3146375;28;20326;-66
2022/06/29 02:40:53;;;;;;;;;;;;;;;20.59;67.00;99697.69;3141375;28;19970;-65
2022/06/29 02:42:26;;;;;;;;;;;;;;;20.57;67.00;99695.16;3146154;28;20065;-65
2022/06/29 02:43:58;;;;;;;;;;;;;;;20.56;67.37;99700.59;3147092;28;20426;-66
2022/06/29 02:45:30;;;;;;;;;;;;;;;20.51;67.32;99690.38;3146273;28;19932;-66
2022/06/29 02:47:02;;;;;;;;;;;;;;;20.53;67.23;99693.75;3146145;28;19924;-66
2022/06/29 02:48:33;;;;;;;;;;;;;;;20.50;67.19;99690.50;3146126;28;19921;-65
2022/06/29 02:50:05;;;;;;;;;;;;;;;20.52;67.14;99689.44;3146002;28;20463;-65
2022/06/29 02:51:37;;;;;;;;;;;;;;;20.52;67.21;99694.72;3146012;28;20037;-66
2022/06/29 02:53:08;;;;;;;;;;;;;;;20.50;67.18;99691.34;3146032;28;19936;-66
2022/06/29 02:54:41;;;;;;;;;;;;;;;20.51;67.24;99692.19;3145769;28;19928;-66
2022/06/29 02:56:13;;;;;;;;;;;;;;;20.51;67.08;99693.03;3146333;28;20266;-66
2022/06/29 02:57:45;;;;;;;;;;;;;;;20.56;66.99;99697.94;3145949;28;19928;-66
2022/06/29 02:59:16;;;;;;;;;;;;;;;20.57;66.86;99689.88;3149167;28;20378;-65
2022/06/29 03:00:48;;;;;;;;;;;;;;;20.59;66.87;99702.97;3145757;28;20329;-65
2022/06/29 03:02:18;;;;;;;;;;;;;;;20.63;66.55;99704.38;3145906;28;19920;-66
2022/06/29 03:03:50;;;;;;;;;;;;;;;20.63;66.41;99705.19;3145786;28;20057;-65
2022/06/29 03:05:22;;;;;;;;;;;;;;;20.65;66.44;99707.72;3139345;28;19924;-65
2022/06/29 03:06:52;;;;;;;;;;;;;;;20.64;66.37;99698.09;3145817;28;20441;-65
2022/06/29 03:08:24;;;;;;;;;;;;;;;20.64;66.47;99698.91;3145860;28;20069;-65
2022/06/29 03:09:57;;;;;;;;;;;;;;;20.63;66.41;99699.06;3145899;28;19924;-65
2022/06/29 03:11:28;;;;;;;;;;;;;;;20.59;66.66;99689.75;3145646;28;19946;-65
2022/06/29 03:13:00;;;;;;;;;;;;;;;20.61;66.70;99701.84;3145838;28;19932;-65
2022/06/29 03:14:31;;;;;;;;;;;;;;;20.59;66.95;99703.81;3145850;28;19920;-66
2022/06/29 03:16:03;;;;;;;;;;;;;;;20.61;66.72;99698.34;3145809;28;20010;-65
2022/06/29 03:17:35;;;;;;;;;;;;;;;20.57;67.10;99699.63;3144293;28;19920;-65
2022/06/29 03:19:06;;;;;;;;;;;;;;;20.54;67.33;99697.25;3144607;28;20377;-65
2022/06/29 03:20:38;;;;;;;;;;;;;;;20.51;67.47;99700.97;3145714;28;20258;-66
2022/06/29 03:22:09;;;;;;;;;;;;;;;20.51;67.27;99700.97;3142227;28;19921;-65
2022/06/29 03:23:40;;;;;;;;;;;;;;;20.53;67.12;99699.06;3145766;28;19924;-65
2022/06/29 03:25:13;;;;;;;;;;;;;;;20.56;67.10;99700.59;3145666;28;19920;-65
2022/06/29 03:26:44;;;;;;;;;;;;;;;20.58;66.98;99691.53;3145909;28;20324;-65
2022/06/29 03:28:15;;;;;;;;;;;;;;;20.58;67.09;99694.16;3148312;28;20022;-65
2022/06/29 03:29:47;;;;;;;;;;;;;;;20.60;66.94;99694.88;3146769;28;19997;-66
2022/06/29 03:31:18;;;;;;;;;;;;;;;20.59;67.06;99697.69;3145670;28;20006;-66
2022/06/29 03:32:50;;;;;;;;;;;;;;;20.56;67.16;99692.66;3145374;28;19996;-65
2022/06/29 03:34:21;;;;;;;;;;;;;;;20.56;67.36;99693.50;3145491;28;19921;-66
2022/06/29 03:35:53;;;;;;;;;;;;;;;20.57;67.15;99692.50;3145742;28;19932;-66
2022/06/29 03:37:24;;;;;;;;;;;;;;;20.60;66.97;99688.75;3145690;28;20402;-66
2022/06/29 03:38:56;;;;;;;;;;;;;;;20.62;66.87;99687.66;3145655;28;20232;-65
2022/06/29 03:40:29;;;;;;;;;;;;;;;20.64;66.83;99687.50;3144810;28;19920;-65
2022/06/29 03:42:01;;;;;;;;;;;;;;;20.63;66.98;99689.31;3145488;28;20455;-65
2022/06/29 03:43:32;;;;;;;;;;;;;;;20.66;66.67;99680.28;3145394;28;20413;-66
2022/06/29 03:45:04;;;;;;;;;;;;;;;20.67;66.84;99685.44;3145602;28;19920;-66
2022/06/29 03:46:36;;;;;;;;;;;;;;;20.70;66.67;99676.38;3141496;28;19925;-65
2022/06/29 03:48:07;;;;;;;;;;;;;;;20.70;66.69;99678.19;3145522;28;20367;-66
2022/06/29 03:49:39;;;;;;;;;;;;;;;20.71;66.68;99675.41;3138651;28;20404;-66
2022/06/29 03:51:11;;;;;;;;;;;;;;;20.73;66.50;99672.63;3145653;28;20541;-65
2022/06/29 03:52:42;;;;;;;;;;;;;;;20.76;66.52;99672.34;3145162;28;19921;-65
2022/06/29 03:54:14;;;;;;;;;;;;;;;20.78;66.38;99681.81;3145434;28;19997;-65
2022/06/29 03:55:47;;;;;;;;;;;;;;;20.80;66.65;99679.88;3145502;28;20445;-65
2022/06/29 03:57:18;;;;;;;;;;;;;;;20.77;66.69;99682.81;3145235;28;19920;-65
2022/06/29 03:58:50;;;;;;;;;;;;;;;20.79;66.49;99680.84;3147677;28;19943;-66
2022/06/29 04:00:22;;;;;;;;;;;;;;;20.80;66.42;99682.53;3145203;28;19997;-65
2022/06/29 04:01:54;;;;;;;;;;;;;;;20.84;66.04;99677.78;3145069;28;19993;-66
2022/06/29 04:03:25;;;;;;;;;;;;;;;20.83;66.43;99682.25;3145128;28;19943;-66
2022/06/29 04:04:57;;;;;;;;;;;;;;;20.86;66.37;99678.50;3145247;28;20380;-66
2022/06/29 04:06:28;;;;;;;;;;;;;;;20.89;66.19;99683.50;3145377;28;20362;-66
2022/06/29 04:07:59;;;;;;;;;;;;;;;20.88;66.23;99689.75;3145394;28;19926;-66
2022/06/29 04:09:31;;;;;;;;;;;;;;;20.89;66.15;99689.63;3145102;28;19928;-66
2022/06/29 04:11:48;;;;;;;;;;;;;;;20.92;66.24;99690.34;3145512;28;20372;-66
2022/06/29 04:12:55;;;;;;;;;;;;;;;20.95;66.08;99688.25;3140657;28;20393;-66
2022/06/29 04:14:28;;;;;;;;;;;;;;;20.98;65.79;99676.56;3147690;28;20525;-66
2022/06/29 04:15:59;;;;;;;;;;;;;;;21.01;65.84;99678.91;3145288;28;20525;-66
2022/06/29 04:17:31;;;;;;;;;;;;;;;21.03;65.60;99679.59;3143884;28;19993;-66
2022/06/29 04:19:03;;;;;;;;;;;;;;;21.08;65.56;99672.09;3144881;28;20407;-66
2022/06/29 04:22:23;;;;;;;;;;;;;;;21.16;65.67;99672.22;3144657;28;19920;-66
2022/06/29 04:23:55;;;;;;;;;;;;;;;21.18;65.85;99674.72;3145579;28;20009;-66
2022/06/29 04:25:27;;;;;;;;;;;;;;;21.20;65.63;99664.84;3144938;28;19921;-66
2022/06/29 04:27:00;;;;;;;;;;;;;;;21.24;65.63;99674.19;3145553;28;19927;-66
2022/06/29 04:28:31;;;;;;;;;;;;;;;21.27;65.39;99668.59;3148324;28;19924;-67
2022/06/29 04:30:03;;;;;;;;;;;;;;;21.30;65.16;99665.69;3144865;28;19921;-66
2022/06/29 04:31:34;;;;;;;;;;;;;;;21.32;65.00;99669.81;3144834;28;20382;-66
2022/06/29 04:33:07;;;;;;;;;;;;;;;21.36;64.87;99662.50;3144999;28;19924;-66
2022/06/29 04:34:39;;;;;;;;;;;;;;;21.41;64.84;99667.34;3145002;28;20007;-66
2022/06/29 04:36:11;;;;;;;;;;;;;;;21.45;64.69;99674.88;3145418;28;20321;-66
2022/06/29 04:37:42;;;;;;;;;;;;;;;21.49;64.64;99665.66;3145115;28;19931;-66
2022/06/29 04:39:14;;;;;;;;;;;;;;;21.53;64.44;99669.72;3145056;28;19978;-66
2022/06/29 04:40:45;;;;;;;;;;;;;;;21.58;64.41;99672.75;3145124;28;19932;-67
2022/06/29 04:42:18;;;;;;;;;;;;;;;21.65;64.25;99664.22;3145066;28;19927;-66
2022/06/29 04:43:50;;;;;;;;;;;;;;;21.66;64.00;99668.56;3146641;28;19933;-66
2022/06/29 04:47:07;;;;;;;;;;;;;;;21.76;64.19;99685.25;3117702;28;19921;-66
2022/06/29 04:48:38;;;;;;;;;;;;;;;21.78;64.13;99675.34;3145141;28;19928;-66
2022/06/29 04:50:10;;;;;;;;;;;;;;;21.82;63.75;99679.38;3144951;28;20472;-66
2022/06/29 04:51:41;;;;;;;;;;;;;;;21.86;63.82;99678.13;3145131;28;20314;-66
2022/06/29 04:53:12;;;;;;;;;;;;;;;21.90;63.64;99679.50;3144849;28;19994;-66
2022/06/29 04:54:43;;;;;;;;;;;;;;;21.92;63.40;99682.84;3145297;28;19924;-66
2022/06/29 04:56:15;;;;;;;;;;;;;;;21.95;63.37;99674.59;3144893;28;20611;-66
2022/06/29 04:57:48;;;;;;;;;;;;;;;21.99;63.33;99683.94;3145102;28;19920;-65
2022/06/29 04:59:20;;;;;;;;;;;;;;;22.07;63.12;99688.53;3146212;28;19924;-66
2022/06/29 05:00:51;;;;;;;;;;;;;;;22.11;62.97;99687.22;3145111;28;19984;-66
2022/06/29 05:02:22;;;;;;;;;;;;;;;22.17;62.92;99691.16;3144877;28;20359;-66
2022/06/29 05:03:55;;;;;;;;;;;;;;;22.21;62.85;99690.72;3144922;28;20273;-66
2022/06/29 05:05:26;;;;;;;;;;;;;;;22.29;62.86;99689.97;3144560;28;19921;-66
2022/06/29 05:06:58;;;;;;;;;;;;;;;22.34;62.45;99677.13;3145404;28;20065;-66
2022/06/29 05:08:28;;;;;;;;;;;;;;;22.39;62.47;99681.97;3144757;28;19978;-66
2022/06/29 05:10:00;;;;;;;;;;;;;;;22.44;62.17;99677.88;3144846;28;20475;-66
2022/06/29 05:11:32;;;;;;;;;;;;;;;22.49;61.95;99680.94;3144815;28;20065;-66
2022/06/29 05:13:04;;;;;;;;;;;;;;;22.56;61.56;99681.16;3145270;28;19920;-66
2022/06/29 05:14:36;;;;;;;;;;;;;;;22.60;61.63;99676.41;3146851;28;19923;-65
2022/06/29 05:16:07;;;;;;;;;;;;;;;22.64;61.20;99677.78;3144843;28;19996;-67
2022/06/29 05:17:39;;;;;;;;;;;;;;;22.69;61.17;99692.28;3143645;28;19924;-65
2022/06/29 05:19:11;;;;;;;;;;;;;;;22.75;60.89;99682.88;3145176;28;19932;-65
2022/06/29 05:20:42;;;;;;;;;;;;;;;22.81;61.05;99684.94;3141503;28;19924;-65
2022/06/29 05:22:14;;;;;;;;;;;;;;;22.88;60.95;99677.19;3145234;28;19920;-65
2022/06/29 05:23:45;;;;;;;;;;;;;;;22.93;60.54;99673.09;3145048;28;19936;-65
2022/06/29 05:25:17;;;;;;;;;;;;;;;22.98;59.89;99675.31;3140588;28;19931;-65
2022/06/29 05:26:49;;;;;;;;;;;;;;;23.04;59.94;99677.38;3147192;28;20007;-66
2022/06/29 05:28:22;;;;;;;;;;;;;;;23.10;59.86;99681.22;3149725;28;19924;-66
2022/06/29 05:29:53;;;;;;;;;;;;;;;23.17;59.81;99685.78;3147369;28;19920;-66
2022/06/29 05:31:29;;;;;;;;;;;;;;;23.24;59.67;99685.16;3147029;28;19985;-66
2022/06/29 05:33:01;;;;;;;;;;;;;;;23.28;59.18;99692.69;3147316;28;19967;-66
2022/06/29 05:34:32;;;;;;;;;;;;;;;23.35;58.83;99682.28;3147360;28;19924;-67
2022/06/29 05:36:04;;;;;;;;;;;;;;;23.38;58.43;99688.09;3147138;28;19930;-66
2022/06/29 05:37:36;;;;;;;;;;;;;;;23.45;58.75;99680.34;3147599;28;19924;-66
2022/06/29 05:39:08;;;;;;;;;;;;;;;23.51;58.52;99681.56;3147032;28;20447;-67
2022/06/29 05:40:42;;;;;;;;;;;;;;;23.58;58.20;99682.63;3147029;28;20302;-66
2022/06/29 05:42:13;;;;;;;;;;;;;;;23.65;57.96;99678.31;3147247;28;19970;-66
2022/06/29 05:43:51;;;;;;;;;;;;;;;23.73;58.02;99680.25;3151533;28;20023;-66
2022/06/29 05:45:23;;;;;;;;;;;;;;;23.79;57.95;99677.78;3142424;28;20371;-66
2022/06/29 05:46:54;;;;;;;;;;;;;;;23.86;57.58;99671.84;3147344;28;19974;-66
2022/06/29 05:48:26;;;;;;;;;;;;;;;23.92;57.74;99679.19;3147301;28;20282;-66
2022/06/29 05:50:00;;;;;;;;;;;;;;;23.99;56.71;99677.56;3147171;28;20003;-66
2022/06/29 05:51:32;;;;;;;;;;;;;;;24.05;55.98;99683.09;3146792;28;19924;-66
2022/06/29 05:53:03;;;;;;;;;;;;;;;24.13;56.26;99684.94;3146786;28;19986;-66
2022/06/29 05:54:35;;;;;;;;;;;;;;;24.20;56.48;99685.16;3147085;28;19950;-66
2022/06/29 05:56:07;;;;;;;;;;;;;;;24.27;55.77;99686.16;3147114;28;19927;-66
2022/06/29 05:57:38;;;;;;;;;;;;;;;24.35;55.58;99680.06;3145259;28;19974;-66
2022/06/29 05:59:11;;;;;;;;;;;;;;;24.43;55.07;99686.28;3147677;28;19973;-66
2022/06/29 06:00:43;;;;;;;;;;;;;;;24.49;54.42;99682.09;3147041;28;19927;-66
2022/06/29 06:02:15;;;;;;;;;;;;;;;24.57;54.75;99686.63;3146841;28;20735;-67
2022/06/29 06:03:46;;;;;;;;;;;;;;;24.64;54.58;99680.50;3147005;28;19920;-66
2022/06/29 06:05:18;;;;;;;;;;;;;;;24.73;54.60;99678.69;3147075;28;19928;-66
2022/06/29 06:06:50;;;;;;;;;;;;;;;24.82;54.03;99684.88;3146797;28;19977;-66
2022/06/29 06:08:21;;;;;;;;;;;;;;;24.88;53.84;99685.03;3146805;28;19920;-66
2022/06/29 06:09:53;;;;;;;;;;;;;;;24.94;53.42;99686.22;3146849;28;20334;-66
2022/06/29 06:11:24;;;;;;;;;;;;;;;25.00;52.35;99688.22;3146701;28;19920;-66
2022/06/29 06:12:56;;;;;;;;;;;;;;;25.07;52.44;99683.06;3147074;28;19920;-66
2022/06/29 06:14:29;;;;;;;;;;;;;;;25.12;51.67;99684.22;3148153;28;19920;-66
2022/06/29 06:16:00;;;;;;;;;;;;;;;25.18;51.50;99677.44;3147122;28;19928;-66
2022/06/29 06:17:32;;;;;;;;;;;;;;;25.25;51.73;99688.25;3146040;28;19921;-66
2022/06/29 06:19:03;;;;;;;;;;;;;;;25.33;51.89;99681.09;3146842;28;20332;-66
2022/06/29 06:20:35;;;;;;;;;;;;;;;25.39;51.17;99679.59;3146689;28;20321;-66
2022/06/29 06:22:07;;;;;;;;;;;;;;;25.46;50.96;99679.75;3146541;28;19978;-66
2022/06/29 06:23:38;;;;;;;;;;;;;;;25.49;50.16;99682.91;3146988;28;19929;-66
2022/06/29 06:25:10;;;;;;;;;;;;;;;25.56;50.33;99680.44;3146923;28;20342;-66
2022/06/29 06:26:41;;;;;;;;;;;;;;;25.61;50.38;99686.88;3146876;28;19921;-66
2022/06/29 06:28:13;;;;;;;;;;;;;;;25.68;49.96;99684.41;3147566;28;19931;-66
2022/06/29 06:29:46;;;;;;;;;;;;;;;25.75;49.53;99697.88;3146523;28;19921;-66
2022/06/29 06:31:18;;;;;;;;;;;;;;;25.81;49.86;99689.19;3139759;28;19924;-66
2022/06/29 06:32:50;;;;;;;;;;;;;;;25.87;49.41;99686.69;3146930;28;19928;-66
2022/06/29 06:34:22;;;;;;;;;;;;;;;25.94;49.23;99694.03;3146848;28;19920;-66
2022/06/29 06:35:54;;;;;;;;;;;;;;;26.00;49.22;99683.53;3145825;28;20003;-66
2022/06/29 06:37:25;;;;;;;;;;;;;;;26.13;49.06;99690.16;3146702;28;19961;-66
2022/06/29 06:38:57;;;;;;;;;;;;;;;26.21;48.84;99690.13;3146927;28;19921;-66
2022/06/29 06:42:17;;;;;;;;;;;;;;;26.34;48.94;99682.38;3146680;28;20397;-66
2022/06/29 06:43:49;;;;;;;;;;;;;;;26.38;47.99;99686.34;3150617;28;19920;-66
2022/06/29 06:45:22;;;;;;;;;;;;;;;26.43;47.74;99691.19;3146472;28;20049;-67
2022/06/29 06:46:54;;;;;;;;;;;;;;;26.47;48.13;99690.66;3140512;28;19920;-66
2022/06/29 06:48:26;;;;;;;;;;;;;;;26.52;47.67;99687.50;3146612;28;19931;-66
2022/06/29 06:49:58;;;;;;;;;;;;;;;26.55;48.09;99693.31;3145931;28;20617;-66
2022/06/29 06:51:29;;;;;;;;;;;;;;;26.63;48.15;99689.78;3146751;28;20317;-66
2022/06/29 06:53:02;;;;;;;;;;;;;;;26.67;48.06;99688.41;3146656;28;20406;-66
2022/06/29 06:54:33;;;;;;;;;;;;;;;26.73;48.23;99689.53;3146277;28;19942;-66
2022/06/29 06:56:06;;;;;;;;;;;;;;;26.79;47.88;99691.50;3146484;28;19924;-66
2022/06/29 06:57:39;;;;;;;;;;;;;;;26.87;48.11;99688.78;3146719;28;20007;-66
2022/06/29 06:59:10;;;;;;;;;;;;;;;26.95;48.09;99686.06;3151489;28;20389;-66
2022/06/29 07:00:43;;;;;;;;;;;;;;;27.03;47.89;99692.34;3147349;28;20385;-66
2022/06/29 07:02:15;;;;;;;;;;;;;;;27.10;47.78;99691.47;3146139;28;20067;-66
2022/06/29 07:03:46;;;;;;;;;;;;;;;27.16;47.47;99695.31;3145507;28;19947;-66
2022/06/29 07:05:19;;;;;;;;;;;;;;;27.21;46.93;99687.56;3146013;28;19920;-67
2022/06/29 07:06:51;;;;;;;;;;;;;;;27.26;46.73;99685.19;3145977;28;20403;-66
2022/06/29 07:08:22;;;;;;;;;;;;;;;27.34;46.66;99693.13;3139944;28;19928;-66
2022/06/29 07:09:54;;;;;;;;;;;;;;;27.40;46.31;99694.25;3146204;28;19920;-66
2022/06/29 07:11:25;;;;;;;;;;;;;;;27.45;45.40;99690.03;3146102;28;19924;-66
2022/06/29 07:12:57;;;;;;;;;;;;;;;27.51;45.60;99687.63;3146053;28;19920;-67
2022/06/29 07:14:29;;;;;;;;;;;;;;;27.56;45.40;99682.56;3146660;28;19966;-66
2022/06/29 07:16:03;;;;;;;;;;;;;;;27.62;45.23;99689.88;3145958;28;19932;-66
2022/06/29 07:17:34;;;;;;;;;;;;;;;27.68;45.10;99681.94;3145934;28;20393;-66
2022/06/29 07:19:06;;;;;;;;;;;;;;;27.76;44.77;99688.22;3145945;28;20321;-66
2022/06/29 07:20:37;;;;;;;;;;;;;;;27.81;44.75;99686.69;3146356;28;20309;-66
2022/06/29 07:22:09;;;;;;;;;;;;;;;27.86;44.35;99684.31;3141137;28;19943;-66
2022/06/29 07:23:41;;;;;;;;;;;;;;;27.90;43.96;99685.59;3144832;28;19924;-66
2022/06/29 07:25:12;;;;;;;;;;;;;;;27.93;43.50;99686.25;3145917;28;20319;-66
2022/06/29 07:26:44;;;;;;;;;;;;;;;27.99;43.04;99686.34;3145985;28;19981;-67
2022/06/29 07:28:15;;;;;;;;;;;;;;;28.06;43.54;99684.56;3146638;28;19934;-66
2022/06/29 07:29:47;;;;;;;;;;;;;;;28.15;42.86;99684.47;3145973;28;20309;-66
2022/06/29 07:31:20;;;;;;;;;;;;;;;28.22;42.43;99691.59;3145750;28;19924;-66
2022/06/29 07:32:52;;;;;;;;;;;;;;;28.31;42.83;99678.94;3139422;28;19925;-66
2022/06/29 07:34:23;;;;;;;;;;;;;;;28.42;42.29;99683.00;3145588;28;19924;-66
2022/06/29 07:35:55;;;;;;;;;;;;;;;28.56;41.73;99674.09;3145809;28;19920;-66
2022/06/29 07:37:28;;;;;;;;;;;;;;;28.68;41.80;99685.97;3146190;28;19920;-66
2022/06/29 07:38:59;;;;;;;;;;;;;;;28.77;41.45;99674.13;3146035;28;19924;-66
2022/06/29 07:40:31;;;;;;;;;;;;;;;28.83;41.31;99680.56;3145645;28;19932;-66
2022/06/29 07:42:02;;;;;;;;;;;;;;;28.92;41.32;99678.59;3145782;28;19924;-66
2022/06/29 07:43:34;;;;;;;;;;;;;;;29.01;41.89;99686.31;3148447;28;19928;-66
2022/06/29 07:45:06;;;;;;;;;;;;;;;29.10;41.44;99678.16;3145863;28;19928;-66
2022/06/29 07:46:39;;;;;;;;;;;;;;;29.17;40.96;99679.06;3145476;28;19921;-66
2022/06/29 07:48:11;;;;;;;;;;;;;;;29.20;40.34;99684.88;3144843;28;19931;-66
2022/06/29 07:49:42;;;;;;;;;;;;;;;29.26;40.36;99680.59;3145783;28;19924;-66
2022/06/29 07:51:14;;;;;;;;;;;;;;;29.33;40.54;99680.66;3145708;28;19920;-67
2022/06/29 07:52:45;;;;;;;;;;;;;;;29.36;39.55;99677.56;3145703;28;20516;-66
2022/06/29 07:54:17;;;;;;;;;;;;;;;29.38;39.12;99679.03;3145504;28;19924;-66
2022/06/29 07:55:48;;;;;;;;;;;;;;;29.43;39.23;99683.81;3145707;28;19920;-67
2022/06/29 07:57:20;;;;;;;;;;;;;;;29.48;39.55;99676.84;3145484;28;20302;-66
2022/06/29 07:58:52;;;;;;;;;;;;;;;29.57;39.66;99676.69;3146667;28;20051;-66
2022/06/29 08:00:23;;;;;;;;;;;;;;;29.67;39.59;99675.38;3145551;28;19928;-66
2022/06/29 08:01:56;;;;;;;;;;;;;;;29.73;38.61;99673.75;3145340;28;20371;-66
2022/06/29 08:03:28;;;;;;;;;;;;;;;29.79;38.41;99683.72;3145197;28;19921;-66
2022/06/29 08:05:01;;;;;;;;;;;;;;;29.86;38.73;99676.50;3145599;28;19920;-64
2022/06/29 08:06:33;;;;;;;;;;;;;;;29.98;38.35;99666.03;3145643;28;20564;-64
2022/06/29 08:08:05;;;;;;;;;;;;;;;30.12;37.07;99667.78;3141334;28;19920;-64